Saturday, August 18, 2018, 1:52 PM EDT
Back to Local

KBWI, Baltimore-washington International

Location: Glen Burnie, MD, United States Lat: 39.167
Local Time: 1:52 PM EDT (17:52 GMT) Lon: -76.683
Time Zone: US/Eastern Elev: 147 ft

Show me the last for .
Show Coded

Time T Td Feel RH Dir Speed Gust Alt SLP Vis Weather Sky Remarks
2018-08-18 12:54 87 72 94 60 270° 9 - 29.87 29.86 10 FEW032 FEW120 SCT150 BKN180 BKN210 None
2018-08-18 11:54 84 72 90 67 260° 8 - 29.89 29.88 10 FEW030 SCT150 BKN180 BKN210 None
2018-08-18 10:54 83 72 89 69 240° 9 - 29.90 29.89 10 FEW020 FEW045 SCT150 BKN180 BKN220 None
2018-08-18 09:54 78 72 82 81 240° 8 - 29.91 29.90 10 FEW010 FEW110 SCT150 BKN180 BKN210 None
2018-08-18 08:54 76 73 80 90 250° 3 - 29.92 29.91 10 FEW110 SCT130 BKN170 BKN220 None
2018-08-18 07:54 73 72 77 96 230° 5 - 29.92 29.91 10 FEW110 SCT170 BKN220 BKN250 6-hr Precip Total (8am): 0.06"
24-hr Precip Total (8am): 0.06"
6-hr Min Temp (8am): 72.0°F
6-hr Max Temp (8am): 75.0°F
2018-08-18 06:54 73 72 77 96 240° 3 - 29.92 29.92 8 BCFG FEW110 BKN170 BKN190 BKN250 None
2018-08-18 05:54 72 72 77 100 - Calm - 29.91 29.90 10 FEW060 BKN170 BKN200 BKN250 None
2018-08-18 04:54 72 71 77 97 210° 3 - 29.91 29.90 10 FEW048 FEW080 BKN190 BKN210 BKN250 6-hr Precip Total (5am): 0.06"
2018-08-18 03:54 73 71 77 93 - Calm - 29.91 29.91 8 FEW042 BKN085 BKN100 BKN180 OVC210 Peak wind: 31 mph (27 kts) from 250° at 19 min
1-hr Precip Total: 0.06"
2018-08-18 03:37 73 70 77 90 310° 6 - 29.92 - 5 -RA BR FEW042 SCT060 OVC095 Peak wind: 31 mph (27 kts) from 250° at 19 min
1-hr Precip Total: 0.06"
2018-08-18 03:23 74 70 78 87 270° 15 31 29.95 - 2 +TSRA BR SCT047 BKN060CB BKN075 OVC180 Peak wind: 31 mph (27 kts) from 250° at 19 min
Lighting in the vicinity
1-hr Precip Total: 0.01"
2018-08-18 03:16 75 71 79 87 250° 13 - 29.94 - 7 TS SCT036 BKN060CB BKN075 BKN180 OVC250 Lighting in the vicinity
2018-08-18 02:54 75 71 79 87 240° 3 - 29.92 29.92 10 FEW048 SCT075 BKN180 BKN250 Lighting in the vicinity
2018-08-18 01:54 75 70 79 84 - Calm - 29.94 29.93 10 FEW048 SCT130 BKN190 BKN250 Lighting in the vicinity
6-hr Precip Total (2am): 0.00"
6-hr Min Temp (2am): 73.9°F
6-hr Max Temp (2am): 81.0°F
2018-08-18 00:54 75 71 79 87 320° 5 - 29.95 29.95 10 FEW048 FEW095 SCT230 BKN250 Lighting in the vicinity
24-hr Min Temp (1am): 73.9°F
24-hr Max Temp (1am): 93.9°F
2018-08-17 23:54 76 70 80 81 300° 5 - 29.95 29.94 10 FEW046 FEW120 BKN230 BKN250 Lighting in the vicinity
2018-08-17 22:54 77 70 81 79 230° 3 - 29.95 29.94 10 SCT120 BKN250 6-hr Precip Total (11pm): 0.00"
2018-08-17 21:54 77 70 81 79 - Calm - 29.96 29.95 10 SCT120 BKN250 None
2018-08-17 20:54 80 69 84 69 230° 5 - 29.96 29.95 10 FEW055 SCT120 BKN250 1-hr Precip Total: Trace
2018-08-17 19:54 81 74 87 79 260° 8 - 29.95 29.95 10 -RA FEW040 SCT055 BKN120 BKN250 1-hr Precip Total: Trace
6-hr Precip Total (8pm): 0.00"
6-hr Min Temp (8pm): 81.0°F
6-hr Max Temp (8pm): 93.9°F
2018-08-17 18:54 87 74 96 65 210° 6 - 29.95 29.94 10 FEW050 SCT110 BKN160 OVC250 None
2018-08-17 17:54 88 74 97 63 200° 7 - 29.95 29.94 10 FEW050 SCT110 BKN160 OVC250 None
2018-08-17 16:54 90 72 98 55 210° 8 - 29.96 29.95 10 FEW050 SCT110 BKN160 BKN250 None
2018-08-17 15:54 92 71 100 50 190° 10 20 29.96 29.96 10 SCT045 SCT160 BKN250 None
2018-08-17 14:54 92 74 102 55 Variable 5 - 29.97 29.97 10 SCT044 SCT110 SCT160 SCT250 None
2018-08-17 13:54 91 73 100 55 210° 7 - 30.00 30.00 10 FEW048 SCT110 SCT160 BKN250 6-hr Min Temp (2pm): 77.0°F
6-hr Max Temp (2pm): 91.0°F

Support USWX by starting your Amazon purchase here.